Главная страница
METAR-TAF:

METAR-TAF

Аэропорты :

Батуми, Грузия

широта: 41-36-37N, долгота: 041-35-58E, высота над уровнем моря: 32 м

Текущие метеонаблюдения

Эта сводка был подготовлена 21 минут назад, в 02:00 UTC
Ветер 15 Узел от юго-восточный
Температура 15°C
Влажность 82%
Давление 1020 hPa
Видимость 10 км и более
Нет облачности ниже 1500 м, и нет кучево-дождевой облачности

METAR: UGSB 160200Z 13015KT CAVOK 15/12 Q1020 NOSIG

Время: 06:21 (02:21 UTC)

Прогноз

Эта сводка был подготовлена 3 часа и 21 минут назад, в 23:00 UTC
Прогноз действительный с 16-го 00 UTC до 16-го 24 UTC
Ветер 12 Узел от юго-восточный
Видимость 10 км и более
Нет облачности ниже 1500 м, и нет кучево-дождевой облачности
изменения
С 16-го 05 UTC до 16-го 07 UTC
Ветер 7 Узел от западный
изменения
С 16-го 17 UTC до 16-го 18 UTC
Ветер 10 Узел от юго-восточный
Отдельные облака на высоте 3000 фута

TAF: UGSB 152300Z 1600/1624 13012KT CAVOK TX24/1611Z TN16/1600Z BECMG 1605/1607 26007KT BECMG 1617/1618 13010KT SCT030

Метеонаблюдения и прогнозы для более 4000 аэропортов (сводки METAR и TAF).

Имеющиеся станции представлены на карте желтыми и красными точками.

Чтобы увидеть название станции, наведите на нее мышь.

Затем щелкните, чтобы увидеть метеонаблюдения и метеопрогнозы.

Управление картой: чтобы увеличить масштаб, щелкните зеленые кнопки с черным крестиком; чтобы уменьшить масштаб, щелкните зеленую кнопку с тире; для просмотра соседних карт щелкайте зеленые стрелки.


METAR-TAF: